Time;durP1;ratioP1;P1;durP2;ratioP2;P2;SDS_P1;SDS_P2;PMS_P1;PMS_P2;Temp;Humidity;BMP_temperature;BMP_pressure;BME280_temperature;BME280_humidity;BME280_pressure;Samples;Min_cycle;Max_cycle;Signal;HPM_P1;HPM_P2
2023/03/27 05:00:14;;;;;;;;;1.00;0.33;;;;;;;;6110351;22;46221;-55
2023/03/27 05:02:40;;;;;;;;;3.00;1.00;;;;;;;;4977784;28;46491;-56
2023/03/27 05:05:05;;;;;;;;;4.00;2.00;;;;;;;;4978610;28;45495;-56
2023/03/27 05:07:30;;;;;;;;;2.00;2.00;;;;;;;;4977553;28;45328;-56
2023/03/27 05:09:56;;;;;;;;;2.00;1.00;;;;;;;;4980310;28;45226;-56
2023/03/27 05:12:21;;;;;;;;;2.00;1.00;;;;;;;;4979802;28;45529;-56
2023/03/27 05:14:47;;;;;;;;;0.00;0.00;;;;;;;;4979441;28;45440;-57
2023/03/27 05:17:14;;;;;;;;;2.00;1.00;;;;;;;;4977517;28;45377;-56
2023/03/27 05:19:39;;;;;;;;;3.00;1.00;;;;;;;;4979444;28;45395;-56
2023/03/27 05:22:04;;;;;;;;;1.00;1.00;;;;;;;;4979553;28;45543;-56
2023/03/27 05:24:29;;;;;;;;;1.00;1.00;;;;;;;;4979789;28;46328;-56
2023/03/27 05:26:55;;;;;;;;;2.67;1.00;;;;;;;;4979636;28;45336;-56
2023/03/27 05:29:20;;;;;;;;;0.00;0.00;;;;;;;;4979136;28;45297;-56
2023/03/27 05:31:45;;;;;;;;;2.67;1.00;;;;;;;;4975528;28;45416;-61
2023/03/27 05:34:11;;;;;;;;;2.33;1.00;;;;;;;;4975494;28;45250;-56
2023/03/27 05:36:36;;;;;;;;;1.00;1.00;;;;;;;;4978222;28;45485;-56
2023/03/27 05:39:02;;;;;;;;;1.00;1.00;;;;;;;;4974438;28;45509;-56
2023/03/27 05:41:28;;;;;;;;;3.00;2.67;;;;;;;;4978446;28;45511;-56
2023/03/27 05:43:53;;;;;;;;;3.67;2.33;;;;;;;;4976062;28;45629;-56
2023/03/27 05:46:19;;;;;;;;;2.00;2.00;;;;;;;;4978014;28;45415;-57
2023/03/27 05:48:45;;;;;;;;;1.33;1.33;;;;;;;;4977842;28;45499;-56
2023/03/27 05:51:10;;;;;;;;;2.33;1.33;;;;;;;;4970752;28;45587;-56
2023/03/27 05:53:38;;;;;;;;;2.00;0.33;;;;;;;;4978281;28;46316;-57
2023/03/27 05:56:04;;;;;;;;;2.00;1.00;;;;;;;;4976921;28;45425;-56
2023/03/27 05:58:29;;;;;;;;;2.33;1.00;;;;;;;;4978004;28;45373;-56
2023/03/27 06:00:54;;;;;;;;;0.67;0.67;;;;;;;;4984035;28;45547;-56
2023/03/27 06:03:19;;;;;;;;;2.00;2.00;;;;;;;;4996874;28;46294;-56
2023/03/27 06:05:45;;;;;;;;;1.33;1.33;;;;;;;;4997564;28;45193;-56
2023/03/27 06:08:10;;;;;;;;;1.00;1.00;;;;;;;;4997611;28;45392;-56
2023/03/27 06:10:38;;;;;;;;;1.00;1.00;;;;;;;;4998536;28;45545;-56
2023/03/27 06:13:07;;;;;;;;;4.33;2.00;;;;;;;;4997189;28;48171;-56
2023/03/27 06:15:33;;;;;;;;;3.33;2.00;;;;;;;;4997313;28;45554;-56
2023/03/27 06:17:58;;;;;;;;;3.33;2.67;;;;;;;;4998756;28;45708;-56
2023/03/27 06:20:23;;;;;;;;;2.00;2.00;;;;;;;;4997095;28;45351;-56
2023/03/27 06:22:54;;;;;;;;;1.00;1.00;;;;;;;;4979819;28;46850;-56
2023/03/27 06:25:20;;;;;;;;;3.00;1.67;;;;;;;;4995865;28;45453;-56
2023/03/27 06:27:46;;;;;;;;;2.00;1.00;;;;;;;;4978550;28;45412;-57
2023/03/27 06:30:12;;;;;;;;;1.00;1.00;;;;;;;;4996407;28;45700;-57
2023/03/27 06:32:44;;;;;;;;;4.00;2.33;;;;;;;;4994374;28;46125;-56
2023/03/27 06:35:09;;;;;;;;;5.00;1.00;;;;;;;;4980846;28;45977;-52
2023/03/27 06:37:36;;;;;;;;;4.33;1.67;;;;;;;;4980235;28;45566;-54
2023/03/27 06:40:03;;;;;;;;;3.00;3.00;;;;;;;;4981048;28;45697;-55
2023/03/27 06:42:28;;;;;;;;;6.00;1.00;;;;;;;;4982862;28;46594;-55
2023/03/27 06:44:53;;;;;;;;;4.00;3.00;;;;;;;;4980912;28;45495;-56
2023/03/27 06:47:19;;;;;;;;;2.33;2.00;;;;;;;;4983510;28;45542;-55
2023/03/27 06:49:46;;;;;;;;;1.00;1.00;;;;;;;;4999459;28;46349;-55
2023/03/27 06:52:12;;;;;;;;;2.67;2.00;;;;;;;;5001560;28;46219;-55
2023/03/27 06:54:37;;;;;;;;;2.00;1.67;;;;;;;;5001509;28;45407;-55
2023/03/27 06:57:02;;;;;;;;;1.00;1.00;;;;;;;;5000752;28;45303;-53
2023/03/27 06:59:27;;;;;;;;;3.00;2.00;;;;;;;;5001476;28;45514;-51
2023/03/27 07:01:52;;;;;;;;;1.00;1.00;;;;;;;;5000754;28;45514;-53
2023/03/27 07:04:18;;;;;;;;;3.00;1.00;;;;;;;;5000756;28;45431;-52
2023/03/27 07:06:43;;;;;;;;;1.33;1.00;;;;;;;;4987774;28;45362;-58
2023/03/27 07:09:08;;;;;;;;;3.00;1.00;;;;;;;;5001444;28;45391;-53
2023/03/27 07:11:33;;;;;;;;;4.00;2.33;;;;;;;;5001362;28;46190;-51
2023/03/27 07:13:59;;;;;;;;;3.00;2.67;;;;;;;;5001664;28;45538;-53
2023/03/27 07:16:24;;;;;;;;;4.00;2.00;;;;;;;;5001141;28;45289;-53
2023/03/27 07:18:49;;;;;;;;;6.00;3.00;;;;;;;;5001703;28;45619;-53
2023/03/27 07:21:15;;;;;;;;;4.67;2.00;;;;;;;;5000915;28;46208;-54
2023/03/27 07:23:40;;;;;;;;;2.33;2.33;;;;;;;;5001589;28;45317;-53
2023/03/27 07:26:05;;;;;;;;;5.33;3.00;;;;;;;;5001001;28;45402;-53
2023/03/27 07:28:31;;;;;;;;;4.00;2.00;;;;;;;;5001982;28;45340;-53
2023/03/27 07:30:56;;;;;;;;;4.00;2.67;;;;;;;;5001376;28;46834;-54
2023/03/27 07:33:22;;;;;;;;;2.00;1.00;;;;;;;;4983149;28;45306;-54
2023/03/27 07:35:47;;;;;;;;;5.00;2.00;;;;;;;;5001536;28;45296;-54
2023/03/27 07:38:13;;;;;;;;;5.00;1.67;;;;;;;;5001067;28;45313;-54
2023/03/27 07:40:38;;;;;;;;;1.00;1.00;;;;;;;;4999920;28;46128;-52
2023/03/27 07:43:06;;;;;;;;;2.33;2.00;;;;;;;;5000949;28;45290;-52
2023/03/27 07:45:31;;;;;;;;;3.00;1.33;;;;;;;;5001479;28;45552;-54
2023/03/27 07:48:03;;;;;;;;;3.00;1.33;;;;;;;;5001385;28;45534;-54
2023/03/27 07:50:28;;;;;;;;;0.67;0.00;;;;;;;;5001089;28;45409;-53
2023/03/27 07:52:53;;;;;;;;;3.00;2.00;;;;;;;;5001095;28;45269;-54
2023/03/27 07:55:21;;;;;;;;;2.00;2.00;;;;;;;;5000450;28;45299;-52
2023/03/27 07:57:47;;;;;;;;;0.33;0.33;;;;;;;;5001347;28;45250;-53
2023/03/27 08:00:13;;;;;;;;;2.00;0.33;;;;;;;;4999658;28;46205;-52
2023/03/27 08:02:39;;;;;;;;;3.00;1.00;;;;;;;;4994372;28;45376;-53
2023/03/27 08:05:07;;;;;;;;;1.00;0.00;;;;;;;;5000107;28;45384;-53
2023/03/27 08:07:33;;;;;;;;;2.00;1.00;;;;;;;;5000932;28;45233;-55
2023/03/27 08:09:58;;;;;;;;;2.00;1.00;;;;;;;;5000641;28;46940;-52
2023/03/27 08:12:24;;;;;;;;;0.00;0.00;;;;;;;;5000167;28;45399;-53
2023/03/27 08:14:49;;;;;;;;;0.00;0.00;;;;;;;;5001110;28;45243;-53
2023/03/27 08:17:14;;;;;;;;;2.00;1.00;;;;;;;;5000176;28;45310;-53
2023/03/27 08:19:40;;;;;;;;;2.00;1.00;;;;;;;;4999551;28;46227;-51
2023/03/27 08:22:05;;;;;;;;;0.00;0.00;;;;;;;;4999862;28;45400;-52
2023/03/27 08:24:31;;;;;;;;;1.33;0.67;;;;;;;;5000598;28;45450;-53
2023/03/27 08:26:57;;;;;;;;;1.00;1.00;;;;;;;;5000576;28;45416;-52
2023/03/27 08:29:22;;;;;;;;;0.67;0.00;;;;;;;;5000044;28;46018;-51
2023/03/27 08:31:47;;;;;;;;;0.00;0.00;;;;;;;;4992138;28;45460;-52
2023/03/27 08:34:12;;;;;;;;;1.00;1.00;;;;;;;;5000069;28;45381;-53
2023/03/27 08:36:38;;;;;;;;;1.00;1.00;;;;;;;;4986170;28;45489;-54
2023/03/27 08:39:03;;;;;;;;;0.67;0.67;;;;;;;;4999691;28;46187;-53
2023/03/27 08:41:41;;;;;;;;;1.00;1.00;;;;;;;;5000269;28;45608;-52
2023/03/27 08:44:10;;;;;;;;;2.00;1.00;;;;;;;;5000026;28;45456;-53
2023/03/27 08:46:44;;;;;;;;;1.67;1.67;;;;;;;;4990313;28;45535;-53
2023/03/27 08:49:10;;;;;;;;;2.67;1.33;;;;;;;;4999427;28;47084;-58
2023/03/27 08:51:46;;;;;;;;;2.00;1.00;;;;;;;;5000043;28;45391;-52
2023/03/27 08:54:11;;;;;;;;;2.33;0.33;;;;;;;;4994475;28;45273;-53
2023/03/27 08:56:36;;;;;;;;;3.00;1.00;;;;;;;;5000109;28;45214;-54
2023/03/27 08:59:02;;;;;;;;;4.00;2.00;;;;;;;;4999674;28;46228;-53
2023/03/27 09:01:39;;;;;;;;;4.00;2.00;;;;;;;;4993988;28;45365;-53
2023/03/27 09:04:16;;;;;;;;;4.00;1.00;;;;;;;;4993622;28;45364;-53
2023/03/27 09:06:50;;;;;;;;;0.67;0.67;;;;;;;;4999875;28;45687;-52
2023/03/27 09:09:27;;;;;;;;;2.00;2.00;;;;;;;;4999089;28;45305;-54
2023/03/27 09:12:02;;;;;;;;;3.00;1.00;;;;;;;;4999092;28;45316;-54
2023/03/27 09:14:33;;;;;;;;;1.00;1.00;;;;;;;;4999654;28;45214;-53
2023/03/27 09:17:02;;;;;;;;;1.33;1.33;;;;;;;;4993679;28;45591;-52
2023/03/27 09:19:28;;;;;;;;;0.00;0.00;;;;;;;;4999272;28;46176;-52
2023/03/27 09:22:14;;;;;;;;;1.00;1.00;;;;;;;;4999489;28;45440;-53
2023/03/27 09:24:45;;;;;;;;;1.67;0.67;;;;;;;;4999765;28;45348;-52
2023/03/27 09:27:17;;;;;;;;;0.00;0.00;;;;;;;;4998904;28;45564;-53
2023/03/27 09:29:42;;;;;;;;;3.00;1.33;;;;;;;;4999184;28;45996;-54
2023/03/27 09:32:13;;;;;;;;;2.33;1.00;;;;;;;;4999001;28;45335;-54
2023/03/27 09:34:39;;;;;;;;;2.00;0.33;;;;;;;;4999102;28;45345;-54
2023/03/27 09:37:09;;;;;;;;;1.67;0.00;;;;;;;;4999084;28;45298;-53
2023/03/27 09:39:38;;;;;;;;;2.67;0.00;;;;;;;;4999176;28;45249;-51
2023/03/27 09:42:03;;;;;;;;;4.00;1.00;;;;;;;;4998783;28;45364;-51
2023/03/27 09:44:32;;;;;;;;;0.33;0.00;;;;;;;;4999714;28;45288;-50
2023/03/27 09:47:23;;;;;;;;;2.00;0.00;;;;;;;;4999256;28;45487;-53
2023/03/27 09:49:52;;;;;;;;;1.67;0.00;;;;;;;;4996807;28;46436;-53
2023/03/27 09:52:46;;;;;;;;;0.33;0.33;;;;;;;;4989077;28;46035;-52
2023/03/27 09:55:41;;;;;;;;;0.00;0.00;;;;;;;;4985382;28;45326;-51
2023/03/27 09:58:14;;;;;;;;;0.33;0.00;;;;;;;;4985871;28;46010;-53
2023/03/27 10:00:40;;;;;;;;;1.00;0.00;;;;;;;;4993482;28;45352;-54
2023/03/27 10:03:06;;;;;;;;;1.67;0.00;;;;;;;;5007141;28;45338;-50
2023/03/27 10:05:32;;;;;;;;;1.00;0.00;;;;;;;;4998988;28;45317;-51
2023/03/27 10:07:58;;;;;;;;;0.67;0.00;;;;;;;;4981993;28;45603;-52
2023/03/27 10:10:25;;;;;;;;;0.00;0.00;;;;;;;;4998528;28;46227;-52
2023/03/27 10:12:54;;;;;;;;;0.00;0.00;;;;;;;;4998804;28;45428;-55
2023/03/27 10:15:26;;;;;;;;;0.00;0.00;;;;;;;;4998432;28;45694;-50
2023/03/27 10:17:51;;;;;;;;;1.00;1.00;;;;;;;;4998850;28;45343;-51
2023/03/27 10:20:18;;;;;;;;;0.00;0.00;;;;;;;;4998387;28;45578;-51
2023/03/27 10:22:51;;;;;;;;;0.00;0.00;;;;;;;;5001532;28;45536;-53
2023/03/27 10:25:18;;;;;;;;;0.50;0.00;;;;;;;;5001864;28;45750;-51
2023/03/27 10:27:43;;;;;;;;;0.00;0.00;;;;;;;;5002396;28;45399;-55
2023/03/27 10:30:24;;;;;;;;;0.50;0.50;;;;;;;;5001597;28;46090;-52
2023/03/27 10:32:50;;;;;;;;;0.00;0.00;;;;;;;;5002331;28;45424;-52
2023/03/27 10:35:35;;;;;;;;;0.50;0.00;;;;;;;;5001346;28;45309;-51
2023/03/27 10:38:11;;;;;;;;;2.00;0.25;;;;;;;;4996643;28;45453;-52
2023/03/27 10:40:37;;;;;;;;;3.00;0.25;;;;;;;;5001951;28;46195;-52
2023/03/27 10:43:08;;;;;;;;;1.00;1.00;;;;;;;;5001536;28;45334;-50
2023/03/27 10:45:39;;;;;;;;;0.00;0.00;;;;;;;;5002084;28;45483;-50
2023/03/27 10:48:06;;;;;;;;;0.00;0.00;;;;;;;;5001850;28;45248;-50
2023/03/27 10:50:41;;;;;;;;;0.75;0.25;;;;;;;;5001524;28;46587;-52
2023/03/27 10:53:19;;;;;;;;;0.25;0.00;;;;;;;;5001399;28;45412;-53
2023/03/27 10:55:56;;;;;;;;;1.25;0.00;;;;;;;;4996112;28;45428;-53
2023/03/27 10:58:22;;;;;;;;;0.25;0.00;;;;;;;;5001531;28;45423;-53
2023/03/27 11:00:50;;;;;;;;;0.00;0.00;;;;;;;;5001140;28;45962;-52
2023/03/27 11:03:20;;;;;;;;;0.00;0.00;;;;;;;;4995161;28;45364;-52
2023/03/27 11:05:47;;;;;;;;;0.00;0.00;;;;;;;;5001940;28;45419;-53
2023/03/27 11:08:15;;;;;;;;;0.00;0.00;;;;;;;;5001549;28;45260;-53
2023/03/27 11:10:41;;;;;;;;;0.00;0.00;;;;;;;;5001401;28;45533;-51
2023/03/27 11:13:16;;;;;;;;;0.75;0.75;;;;;;;;5000955;28;45568;-53
2023/03/27 11:15:44;;;;;;;;;1.00;1.00;;;;;;;;5001817;28;45347;-53
2023/03/27 11:18:13;;;;;;;;;0.00;0.00;;;;;;;;5001056;28;45506;-53
2023/03/27 11:20:44;;;;;;;;;0.00;0.00;;;;;;;;5001313;28;45548;-53
2023/03/27 11:23:30;;;;;;;;;0.75;0.50;;;;;;;;5001174;28;45431;-53
2023/03/27 11:25:58;;;;;;;;;2.00;0.00;;;;;;;;4994397;28;45463;-53
2023/03/27 11:28:38;;;;;;;;;2.00;0.00;;;;;;;;5000992;28;45387;-52
2023/03/27 11:31:09;;;;;;;;;1.00;0.00;;;;;;;;5000955;28;45326;-52
2023/03/27 11:33:43;;;;;;;;;0.67;0.67;;;;;;;;5000415;28;45460;-53
2023/03/27 11:36:11;;;;;;;;;0.00;0.00;;;;;;;;5000926;28;45343;-53
2023/03/27 11:38:40;;;;;;;;;0.00;0.00;;;;;;;;5001455;28;45305;-53
2023/03/27 11:41:06;;;;;;;;;0.33;0.33;;;;;;;;5000829;28;45270;-53
2023/03/27 11:43:32;;;;;;;;;1.33;1.33;;;;;;;;5001154;28;45710;-53
2023/03/27 11:46:05;;;;;;;;;0.00;0.00;;;;;;;;5000992;28;45372;-53
2023/03/27 11:48:40;;;;;;;;;0.00;0.00;;;;;;;;5000184;28;45383;-52
2023/03/27 11:51:14;;;;;;;;;1.00;1.00;;;;;;;;4993920;28;47015;-53
2023/03/27 11:53:40;;;;;;;;;1.00;1.00;;;;;;;;5001173;28;45682;-51
2023/03/27 11:56:28;;;;;;;;;1.00;1.00;;;;;;;;5000571;28;45285;-53
2023/03/27 11:59:05;;;;;;;;;1.00;0.00;;;;;;;;5001020;28;45394;-52
2023/03/27 12:01:48;;;;;;;;;0.00;0.00;;;;;;;;4993566;28;46091;-53
2023/03/27 12:04:22;;;;;;;;;0.00;0.00;;;;;;;;4995558;28;45349;-52
2023/03/27 12:06:56;;;;;;;;;1.67;0.00;;;;;;;;5000835;28;45281;-52
2023/03/27 12:09:42;;;;;;;;;0.00;0.00;;;;;;;;5000324;28;45355;-53
2023/03/27 12:12:16;;;;;;;;;0.00;0.00;;;;;;;;4972928;28;46081;-53
2023/03/27 12:14:53;;;;;;;;;2.00;0.00;;;;;;;;5000621;28;45587;-53
2023/03/27 12:17:45;;;;;;;;;0.00;0.00;;;;;;;;5000262;28;45257;-53
2023/03/27 12:20:10;;;;;;;;;1.00;1.00;;;;;;;;4969550;28;45895;-51
2023/03/27 12:22:38;;;;;;;;;0.00;0.00;;;;;;;;5000424;28;46253;-53
2023/03/27 12:25:06;;;;;;;;;0.67;0.00;;;;;;;;5000484;28;45257;-53
2023/03/27 12:27:43;;;;;;;;;0.00;0.00;;;;;;;;5000679;28;45546;-53
2023/03/27 12:30:11;;;;;;;;;1.00;1.00;;;;;;;;5000055;28;45287;-53
2023/03/27 12:32:46;;;;;;;;;0.33;0.33;;;;;;;;5000437;28;45194;-52
2023/03/27 12:35:13;;;;;;;;;0.00;0.00;;;;;;;;4999785;28;45340;-53
2023/03/27 12:37:45;;;;;;;;;0.00;0.00;;;;;;;;5000348;28;45250;-53
2023/03/27 12:40:26;;;;;;;;;0.00;0.00;;;;;;;;4999710;28;45415;-53
2023/03/27 12:42:52;;;;;;;;;0.00;0.00;;;;;;;;4995214;28;46202;-53
2023/03/27 12:45:26;;;;;;;;;1.00;1.00;;;;;;;;4998179;28;45353;-52
2023/03/27 12:48:05;;;;;;;;;1.00;1.00;;;;;;;;5000327;28;45371;-52
2023/03/27 12:50:38;;;;;;;;;0.00;0.00;;;;;;;;5000325;28;45589;-53
2023/03/27 12:53:07;;;;;;;;;0.00;0.00;;;;;;;;4998666;28;46307;-53
2023/03/27 12:55:35;;;;;;;;;1.00;0.00;;;;;;;;4989773;28;45702;-53
2023/03/27 12:58:02;;;;;;;;;1.00;0.00;;;;;;;;4994350;28;45652;-52
2023/03/27 13:00:27;;;;;;;;;0.00;0.00;;;;;;;;4998078;28;45617;-54
2023/03/27 13:03:18;;;;;;;;;1.00;1.00;;;;;;;;4996349;28;45703;-53
2023/03/27 13:05:53;;;;;;;;;1.00;0.00;;;;;;;;4993614;28;45295;-53
2023/03/27 13:08:27;;;;;;;;;0.00;0.00;;;;;;;;4999733;28;45475;-54
2023/03/27 13:10:56;;;;;;;;;3.00;1.00;;;;;;;;4999564;28;45250;-53
2023/03/27 13:13:37;;;;;;;;;2.33;0.00;;;;;;;;4994265;28;45343;-53
2023/03/27 13:16:02;;;;;;;;;1.33;0.00;;;;;;;;4999161;28;45202;-54
2023/03/27 13:18:31;;;;;;;;;0.67;0.00;;;;;;;;4999100;28;45647;-54
2023/03/27 13:21:17;;;;;;;;;2.00;0.00;;;;;;;;4981709;28;45561;-54
2023/03/27 13:23:51;;;;;;;;;0.00;0.00;;;;;;;;4999740;28;45451;-54
2023/03/27 13:26:17;;;;;;;;;0.00;0.00;;;;;;;;4987116;28;46086;-53
2023/03/27 13:28:49;;;;;;;;;0.00;0.00;;;;;;;;4985682;28;45364;-54
2023/03/27 13:31:54;;;;;;;;;0.00;0.00;;;;;;;;4998295;28;45455;-54
2023/03/27 13:34:26;;;;;;;;;0.00;0.00;;;;;;;;4956290;28;46454;-54
2023/03/27 13:36:51;;;;;;;;;0.67;0.00;;;;;;;;4956602;28;45523;-54
2023/03/27 13:39:19;;;;;;;;;1.00;1.00;;;;;;;;4977802;28;45357;-54
2023/03/27 13:41:45;;;;;;;;;0.00;0.00;;;;;;;;4998089;28;45400;-53
2023/03/27 13:44:22;;;;;;;;;0.67;0.00;;;;;;;;4997594;28;46363;-54
2023/03/27 13:46:50;;;;;;;;;0.00;0.00;;;;;;;;4975718;28;45918;-52
2023/03/27 13:49:42;;;;;;;;;0.00;0.00;;;;;;;;4996584;28;45400;-53
2023/03/27 13:52:13;;;;;;;;;0.67;0.67;;;;;;;;4967265;28;45341;-54
2023/03/27 13:54:41;;;;;;;;;0.67;0.33;;;;;;;;4992078;28;45491;-53
2023/03/27 13:57:21;;;;;;;;;0.33;0.00;;;;;;;;4995864;28;45416;-52
2023/03/27 13:59:46;;;;;;;;;0.00;0.00;;;;;;;;4997597;28;45534;-53
2023/03/27 14:02:24;;;;;;;;;0.00;0.00;;;;;;;;4997652;28;45452;-51
2023/03/27 14:05:08;;;;;;;;;0.00;0.00;;;;;;;;4996435;28;46355;-52
2023/03/27 14:07:40;;;;;;;;;0.00;0.00;;;;;;;;4997698;28;45382;-54
2023/03/27 14:10:15;;;;;;;;;0.00;0.00;;;;;;;;5016547;28;45440;-53
2023/03/27 14:13:00;;;;;;;;;0.00;0.00;;;;;;;;4998082;28;45425;-54
2023/03/27 14:15:41;;;;;;;;;0.00;0.00;;;;;;;;4990126;28;46186;-54
2023/03/27 14:18:33;;;;;;;;;0.00;0.00;;;;;;;;4994816;28;45397;-54
2023/03/27 14:21:00;;;;;;;;;0.00;0.00;;;;;;;;4981841;28;45551;-53
2023/03/27 14:23:31;;;;;;;;;0.00;0.00;;;;;;;;4997398;28;45608;-54
2023/03/27 14:26:04;;;;;;;;;1.00;0.00;;;;;;;;4996235;28;46090;-54
2023/03/27 14:28:31;;;;;;;;;0.00;0.00;;;;;;;;4997493;28;45685;-54
2023/03/27 14:30:59;;;;;;;;;0.33;0.33;;;;;;;;4998183;28;45441;-54
2023/03/27 14:33:27;;;;;;;;;1.67;0.00;;;;;;;;4994972;28;45823;-54
2023/03/27 14:35:54;;;;;;;;;2.00;2.00;;;;;;;;4997653;28;46884;-52
2023/03/27 14:38:23;;;;;;;;;0.67;0.67;;;;;;;;4994830;28;45439;-53
2023/03/27 14:40:51;;;;;;;;;0.00;0.00;;;;;;;;4995081;28;45486;-53
2023/03/27 14:43:17;;;;;;;;;0.67;0.33;;;;;;;;4990754;28;45315;-54
2023/03/27 14:45:43;;;;;;;;;0.00;0.00;;;;;;;;4995354;28;47196;-54
2023/03/27 14:48:18;;;;;;;;;0.67;0.00;;;;;;;;5002746;28;45502;-55
2023/03/27 14:50:45;;;;;;;;;0.00;0.00;;;;;;;;5004719;28;45404;-53
2023/03/27 14:53:13;;;;;;;;;0.67;0.00;;;;;;;;4994054;28;45451;-53
2023/03/27 14:55:39;;;;;;;;;0.00;0.00;;;;;;;;4997917;28;46217;-54
2023/03/27 14:58:09;;;;;;;;;1.00;0.67;;;;;;;;4995045;28;45384;-53
2023/03/27 15:00:36;;;;;;;;;0.33;0.33;;;;;;;;4998043;28;45452;-54
2023/03/27 15:03:05;;;;;;;;;0.67;0.67;;;;;;;;4997981;28;45768;-54
2023/03/27 15:05:30;;;;;;;;;0.33;0.00;;;;;;;;4997526;28;45320;-54
2023/03/27 15:07:56;;;;;;;;;2.33;1.00;;;;;;;;5000358;28;45447;-53
2023/03/27 15:10:25;;;;;;;;;0.33;0.33;;;;;;;;4999821;28;45561;-54
2023/03/27 15:12:51;;;;;;;;;1.33;0.33;;;;;;;;5007247;28;45404;-52
2023/03/27 15:15:24;;;;;;;;;0.67;0.67;;;;;;;;4999456;28;46023;-53
2023/03/27 15:17:53;;;;;;;;;0.67;0.67;;;;;;;;5000866;28;46140;-54
2023/03/27 15:20:21;;;;;;;;;0.67;0.67;;;;;;;;5010960;28;45878;-54
2023/03/27 15:22:49;;;;;;;;;0.00;0.00;;;;;;;;5004689;28;45508;-53
2023/03/27 15:25:18;;;;;;;;;0.00;0.00;;;;;;;;4989879;28;46107;-54
2023/03/27 15:27:54;;;;;;;;;0.00;0.00;;;;;;;;5000597;28;45234;-53
2023/03/27 15:30:30;;;;;;;;;1.00;1.00;;;;;;;;5000847;28;45405;-54
2023/03/27 15:33:00;;;;;;;;;1.33;0.00;;;;;;;;5000519;28;45445;-53
2023/03/27 15:35:29;;;;;;;;;0.33;0.33;;;;;;;;5000434;28;47169;-54
2023/03/27 15:37:55;;;;;;;;;1.33;0.67;;;;;;;;4999811;28;45533;-53
2023/03/27 15:40:35;;;;;;;;;2.00;1.00;;;;;;;;4997246;28;45583;-53
2023/03/27 15:43:12;;;;;;;;;0.33;0.33;;;;;;;;4991472;28;45374;-54
2023/03/27 15:45:38;;;;;;;;;1.67;0.33;;;;;;;;5000422;28;46915;-54
2023/03/27 15:48:10;;;;;;;;;1.67;1.00;;;;;;;;5000124;28;45368;-53
2023/03/27 15:50:36;;;;;;;;;1.00;1.00;;;;;;;;4996322;28;45360;-54
2023/03/27 15:53:02;;;;;;;;;1.00;1.00;;;;;;;;5001026;28;45318;-54
2023/03/27 15:55:54;;;;;;;;;0.00;0.00;;;;;;;;4996373;28;46071;-54
2023/03/27 15:58:24;;;;;;;;;3.00;1.00;;;;;;;;4999581;28;45412;-52
2023/03/27 16:00:51;;;;;;;;;1.00;1.00;;;;;;;;5000875;28;45496;-54
2023/03/27 16:03:24;;;;;;;;;1.00;1.00;;;;;;;;4999699;28;45373;-53
2023/03/27 16:05:50;;;;;;;;;0.00;0.00;;;;;;;;4998275;28;47173;-53
2023/03/27 16:08:22;;;;;;;;;1.00;1.00;;;;;;;;5000155;28;45319;-53
2023/03/27 16:10:47;;;;;;;;;1.33;0.67;;;;;;;;5000841;28;45506;-54
2023/03/27 16:13:33;;;;;;;;;1.00;1.00;;;;;;;;4978448;28;45604;-53
2023/03/27 16:16:00;;;;;;;;;1.33;1.00;;;;;;;;5005406;28;46426;-54
2023/03/27 16:18:35;;;;;;;;;3.00;1.00;;;;;;;;5003026;28;45289;-54
2023/03/27 16:21:05;;;;;;;;;1.67;0.67;;;;;;;;4999005;28;45269;-53
2023/03/27 16:23:30;;;;;;;;;1.00;1.00;;;;;;;;4995795;28;45344;-53
2023/03/27 16:25:55;;;;;;;;;4.00;1.00;;;;;;;;4994813;28;45344;-54
2023/03/27 16:28:21;;;;;;;;;0.67;0.67;;;;;;;;4975001;28;46479;-54
2023/03/27 16:30:47;;;;;;;;;2.00;2.00;;;;;;;;5000980;28;45488;-52
2023/03/27 16:33:17;;;;;;;;;1.67;1.00;;;;;;;;5002961;28;45473;-54
2023/03/27 16:35:44;;;;;;;;;4.00;1.00;;;;;;;;5009611;28;46274;-54
2023/03/27 16:38:09;;;;;;;;;1.00;1.00;;;;;;;;5007078;28;45387;-54
2023/03/27 16:40:34;;;;;;;;;3.33;1.00;;;;;;;;4993274;28;45434;-54
2023/03/27 16:43:00;;;;;;;;;1.33;1.00;;;;;;;;4996351;28;45524;-50
2023/03/27 16:45:25;;;;;;;;;3.00;1.00;;;;;;;;5000429;28;46550;-55
2023/03/27 16:47:50;;;;;;;;;1.00;1.00;;;;;;;;4965935;28;45575;-57
2023/03/27 16:50:18;;;;;;;;;3.33;2.00;;;;;;;;4991253;28;45541;-57
2023/03/27 16:52:43;;;;;;;;;2.00;2.00;;;;;;;;4996437;28;45506;-57
2023/03/27 16:55:08;;;;;;;;;1.00;1.00;;;;;;;;4994050;28;46374;-56
2023/03/27 16:57:35;;;;;;;;;1.00;1.00;;;;;;;;4998118;28;45460;-59
2023/03/27 17:00:00;;;;;;;;;1.00;0.00;;;;;;;;4971396;28;45522;-60
2023/03/27 17:02:26;;;;;;;;;0.00;0.00;;;;;;;;4980874;28;45456;-60
2023/03/27 17:04:51;;;;;;;;;0.00;0.00;;;;;;;;4985102;28;46824;-59
2023/03/27 17:07:16;;;;;;;;;1.00;1.00;;;;;;;;4984232;28;45394;-59
2023/03/27 17:09:42;;;;;;;;;0.00;0.00;;;;;;;;4967450;28;45539;-59
2023/03/27 17:12:08;;;;;;;;;2.00;0.00;;;;;;;;4996171;28;45628;-59
2023/03/27 17:14:34;;;;;;;;;0.33;0.33;;;;;;;;4977578;28;46891;-59
2023/03/27 17:16:59;;;;;;;;;0.00;0.00;;;;;;;;4994191;28;45405;-59
2023/03/27 17:19:24;;;;;;;;;1.67;1.67;;;;;;;;4995661;28;45460;-59
2023/03/27 17:21:49;;;;;;;;;1.00;1.00;;;;;;;;4998197;28;45975;-60
2023/03/27 17:24:16;;;;;;;;;0.00;0.00;;;;;;;;4977478;28;46312;-60
2023/03/27 17:26:41;;;;;;;;;1.33;1.33;;;;;;;;4987288;28;45554;-60
2023/03/27 17:29:07;;;;;;;;;2.00;2.00;;;;;;;;4978725;28;45433;-60
2023/03/27 17:31:33;;;;;;;;;4.33;4.00;;;;;;;;4997374;28;45535;-59
2023/03/27 17:33:58;;;;;;;;;2.33;2.33;;;;;;;;4995435;28;45319;-59
2023/03/27 17:36:24;;;;;;;;;1.00;1.00;;;;;;;;4998601;28;45413;-60
2023/03/27 17:38:50;;;;;;;;;1.33;1.33;;;;;;;;4998884;28;45257;-59
2023/03/27 17:41:16;;;;;;;;;5.33;2.00;;;;;;;;4999458;28;45598;-60
2023/03/27 17:43:42;;;;;;;;;4.00;2.00;;;;;;;;4998252;28;45387;-59
2023/03/27 17:46:07;;;;;;;;;2.00;1.67;;;;;;;;4997892;28;45555;-60
2023/03/27 17:48:33;;;;;;;;;2.00;2.00;;;;;;;;4996783;28;45339;-59
2023/03/27 17:50:58;;;;;;;;;1.33;0.67;;;;;;;;4989052;28;45479;-59
2023/03/27 17:53:25;;;;;;;;;1.00;1.00;;;;;;;;4997395;28;45876;-59
2023/03/27 17:55:51;;;;;;;;;1.00;0.33;;;;;;;;4982758;28;45420;-67
2023/03/27 17:58:20;;;;;;;;;2.33;1.33;;;;;;;;4999213;28;45908;-76
2023/03/27 18:00:46;;;;;;;;;1.67;1.67;;;;;;;;4997729;28;45646;-75
2023/03/27 18:03:12;;;;;;;;;1.67;1.67;;;;;;;;5001760;28;45579;-73
2023/03/27 18:05:38;;;;;;;;;1.67;1.33;;;;;;;;4980228;28;45259;-73
2023/03/27 18:08:04;;;;;;;;;1.00;1.00;;;;;;;;4998388;28;45339;-74
2023/03/27 18:10:30;;;;;;;;;2.33;2.33;;;;;;;;4997544;28;45801;-73
2023/03/27 18:12:56;;;;;;;;;4.00;2.00;;;;;;;;4996757;28;45528;-73
2023/03/27 18:15:21;;;;;;;;;3.67;2.67;;;;;;;;4996980;28;45250;-73
2023/03/27 18:17:46;;;;;;;;;1.00;1.00;;;;;;;;4998343;28;45632;-73
2023/03/27 18:20:11;;;;;;;;;2.33;2.33;;;;;;;;4980762;28;45473;-74
2023/03/27 18:22:37;;;;;;;;;1.67;1.00;;;;;;;;4992874;28;45879;-74
2023/03/27 18:25:03;;;;;;;;;2.33;2.33;;;;;;;;4999577;28;45278;-73
2023/03/27 18:27:28;;;;;;;;;2.00;2.00;;;;;;;;4982259;28;45308;-74
2023/03/27 18:29:53;;;;;;;;;5.00;3.00;;;;;;;;4990251;28;45334;-74
2023/03/27 18:32:19;;;;;;;;;9.67;6.33;;;;;;;;4973988;28;47215;-74
2023/03/27 18:34:45;;;;;;;;;5.00;5.00;;;;;;;;4976578;28;46431;-74
2023/03/27 18:37:10;;;;;;;;;6.00;4.33;;;;;;;;4971014;28;45767;-75
2023/03/27 18:39:36;;;;;;;;;7.67;5.00;;;;;;;;4992023;28;45600;-74
2023/03/27 18:42:01;;;;;;;;;5.00;5.00;;;;;;;;4996509;28;46055;-74
2023/03/27 18:44:27;;;;;;;;;2.00;2.00;;;;;;;;4997394;28;45325;-74
2023/03/27 18:46:52;;;;;;;;;8.33;4.67;;;;;;;;5000604;28;45189;-69
2023/03/27 18:49:19;;;;;;;;;4.00;4.00;;;;;;;;4999618;28;45463;-69
2023/03/27 18:51:44;;;;;;;;;3.00;3.00;;;;;;;;4996804;28;46373;-69
2023/03/27 18:54:12;;;;;;;;;4.33;4.33;;;;;;;;4993187;28;45451;-75
2023/03/27 18:56:37;;;;;;;;;10.67;7.00;;;;;;;;4998698;28;45372;-66
2023/03/27 18:59:02;;;;;;;;;4.00;4.00;;;;;;;;4994846;28;45441;-67
2023/03/27 19:01:33;;;;;;;;;9.33;7.67;;;;;;;;4997956;28;45535;-66
2023/03/27 19:03:58;;;;;;;;;9.00;9.00;;;;;;;;4999237;28;45542;-64
2023/03/27 19:06:24;;;;;;;;;9.00;6.33;;;;;;;;5000880;28;45523;-63
2023/03/27 19:08:50;;;;;;;;;9.00;6.67;;;;;;;;5000754;28;45540;-65
2023/03/27 19:11:15;;;;;;;;;3.67;3.00;;;;;;;;5013864;28;46151;-63
2023/03/27 19:13:40;;;;;;;;;7.33;6.33;;;;;;;;5004350;28;46899;-58
2023/03/27 19:16:06;;;;;;;;;7.33;5.00;;;;;;;;4993093;28;45772;-58
2023/03/27 19:18:31;;;;;;;;;5.67;5.67;;;;;;;;4999477;28;45629;-59
2023/03/27 19:20:59;;;;;;;;;9.33;6.67;;;;;;;;4999861;28;45380;-59
2023/03/27 19:23:25;;;;;;;;;7.00;6.00;;;;;;;;4997604;28;45467;-59
2023/03/27 19:25:51;;;;;;;;;14.33;11.67;;;;;;;;4999371;28;45362;-66
2023/03/27 19:28:16;;;;;;;;;15.00;13.00;;;;;;;;4992595;28;45443;-57
2023/03/27 19:30:41;;;;;;;;;13.33;11.00;;;;;;;;4998545;28;45636;-57
2023/03/27 19:33:07;;;;;;;;;8.00;6.67;;;;;;;;4999530;28;45416;-55
2023/03/27 19:35:32;;;;;;;;;7.33;6.33;;;;;;;;5000016;28;45341;-58
2023/03/27 19:37:57;;;;;;;;;7.33;7.33;;;;;;;;5000803;28;45401;-56
2023/03/27 19:40:23;;;;;;;;;8.33;7.67;;;;;;;;4998428;28;45697;-58
2023/03/27 19:42:48;;;;;;;;;12.33;6.67;;;;;;;;4997317;28;45786;-57
2023/03/27 19:45:13;;;;;;;;;5.00;5.00;;;;;;;;5000082;28;45620;-58
2023/03/27 19:47:38;;;;;;;;;4.00;4.00;;;;;;;;5000056;28;45745;-61
2023/03/27 19:50:05;;;;;;;;;5.00;5.00;;;;;;;;4996067;28;45488;-58
2023/03/27 19:52:30;;;;;;;;;4.00;3.00;;;;;;;;4997017;28;45634;-56